createdAt,value
2019-05-23T00:03:44.121Z,54.60
2019-05-23T00:09:08.313Z,55.20
2019-05-23T00:14:21.310Z,54.80
2019-05-23T00:19:26.749Z,54.60
2019-05-23T00:24:30.635Z,55.40
2019-05-23T00:29:35.966Z,54.30
2019-05-23T00:34:41.324Z,54.60
2019-05-23T00:39:47.358Z,54.50
2019-05-23T00:44:52.296Z,54.80
2019-05-23T00:49:55.930Z,55.40
2019-05-23T00:55:00.320Z,54.50
2019-05-23T01:00:04.717Z,54.50
2019-05-23T01:05:10.267Z,54.60
2019-05-23T01:10:15.430Z,54.70
2019-05-23T01:15:20.394Z,54.80
2019-05-23T01:20:37.948Z,54.70
2019-05-23T01:25:41.666Z,54.60
2019-05-23T01:31:02.038Z,54.50
2019-05-23T01:36:06.313Z,55.30
2019-05-23T01:41:11.281Z,54.80
2019-05-23T01:46:15.148Z,54.60
2019-05-23T01:51:20.302Z,54.80
2019-05-23T01:56:24.559Z,54.90
2019-05-23T02:01:28.345Z,54.20
2019-05-23T02:06:32.412Z,54.50
2019-05-23T02:11:36.883Z,54.40
2019-05-23T02:16:41.090Z,55.30
2019-05-23T02:21:44.812Z,54.40
2019-05-23T02:26:48.499Z,54.50
2019-05-23T02:31:53.409Z,54.60
2019-05-23T02:36:58.454Z,54.50
2019-05-23T02:42:12.719Z,54.30
2019-05-23T02:47:34.405Z,54.70
2019-05-23T02:52:41.159Z,54.40
2019-05-23T02:57:47.008Z,54.70
2019-05-23T03:02:56.011Z,54.60
2019-05-23T03:08:00.908Z,54.30
2019-05-23T03:13:06.289Z,54.40
2019-05-23T03:18:10.671Z,54.50
2019-05-23T03:23:15.326Z,54.70
2019-05-23T03:28:21.265Z,55.00
2019-05-23T03:33:25.800Z,55.00
2019-05-23T03:38:29.514Z,54.80
2019-05-23T03:43:34.529Z,54.70
2019-05-23T03:48:40.158Z,54.90
2019-05-23T03:53:46.784Z,54.70
2019-05-23T03:58:51.851Z,54.80
2019-05-23T04:03:56.740Z,54.80
2019-05-23T04:09:01.846Z,55.30
2019-05-23T04:14:07.471Z,54.70
2019-05-23T04:19:11.690Z,54.80
2019-05-23T04:24:16.192Z,55.60
2019-05-23T04:29:19.876Z,55.20
2019-05-23T04:34:23.845Z,55.20
2019-05-23T04:39:28.805Z,55.30
2019-05-23T04:44:32.426Z,55.40
2019-05-23T04:49:36.629Z,55.10
2019-05-23T04:54:41.120Z,55.20
2019-05-23T04:59:45.178Z,56.00
2019-05-23T05:04:48.819Z,55.70
2019-05-23T05:09:52.502Z,55.70
2019-05-23T05:14:56.280Z,55.70
2019-05-23T05:20:00.069Z,55.90
2019-05-23T05:25:04.633Z,56.30
2019-05-23T05:30:08.622Z,56.10
2019-05-23T05:35:14.406Z,56.60
2019-05-23T05:40:18.496Z,58.80
2019-05-23T05:45:22.511Z,56.30
2019-05-23T05:50:26.407Z,52.80
2019-05-23T05:55:30.112Z,54.80
2019-05-23T06:00:38.580Z,55.20
2019-05-23T06:05:59.077Z,54.30
2019-05-23T06:11:05.513Z,53.60
2019-05-23T06:16:09.413Z,55.00
2019-05-23T06:21:14.746Z,52.70
2019-05-23T06:26:18.454Z,55.30
2019-05-23T06:31:22.178Z,54.80
2019-05-23T06:36:27.273Z,54.80
2019-05-23T06:41:32.126Z,54.70
2019-05-23T06:46:35.901Z,55.00
2019-05-23T06:51:39.543Z,54.90
2019-05-23T06:56:43.267Z,54.80
2019-05-23T07:01:46.894Z,54.70
2019-05-23T07:06:51.005Z,54.00
2019-05-23T07:11:55.775Z,55.10
2019-05-23T07:16:59.471Z,54.90
2019-05-23T07:22:03.273Z,54.50
2019-05-23T07:27:06.953Z,55.80
2019-05-23T07:32:10.644Z,55.40
2019-05-23T07:37:14.350Z,55.80
2019-05-23T07:42:18.375Z,55.50
2019-05-23T07:47:23.102Z,55.80
2019-05-23T07:52:26.771Z,56.10
2019-05-23T07:57:31.359Z,55.20
2019-05-23T08:02:37.833Z,53.40
2019-05-23T08:07:42.857Z,55.70
2019-05-23T08:12:46.680Z,55.30
2019-05-23T08:17:50.369Z,56.00
2019-05-23T08:22:53.988Z,54.90
2019-05-23T08:27:58.437Z,54.30
2019-05-23T08:33:02.477Z,53.70
2019-05-23T08:38:07.147Z,55.30
2019-05-23T08:43:11.022Z,56.10
2019-05-23T08:48:14.775Z,54.90
2019-05-23T08:53:18.495Z,55.10
2019-05-23T08:58:22.427Z,54.70
2019-05-23T09:03:26.826Z,55.90
2019-05-23T09:08:31.170Z,56.30
2019-05-23T09:13:34.777Z,54.70
2019-05-23T09:18:38.475Z,54.30
2019-05-23T09:23:42.244Z,55.90
2019-05-23T09:28:45.895Z,56.20
2019-05-23T09:33:49.538Z,56.10
2019-05-23T09:38:53.218Z,56.40
2019-05-23T09:43:56.796Z,55.60
2019-05-23T09:49:00.475Z,56.40
2019-05-23T09:54:04.272Z,55.00
2019-05-23T09:59:08.129Z,53.70
2019-05-23T10:04:11.818Z,55.00
2019-05-23T10:09:15.486Z,55.50
2019-05-23T10:14:20.824Z,56.10
2019-05-23T10:19:25.990Z,56.30
2019-05-23T10:24:29.661Z,55.50
2019-05-23T10:29:33.367Z,56.40
2019-05-23T10:34:37.149Z,56.20
2019-05-23T10:39:42.314Z,56.50
2019-05-23T10:50:07.957Z,56.40
2019-05-23T10:55:08.241Z,56.50
2019-05-23T11:00:14.317Z,57.10
2019-05-23T11:05:18.277Z,56.00
2019-05-23T11:10:22.630Z,56.60
2019-05-23T11:15:26.427Z,57.20
2019-05-23T11:20:30.297Z,56.10
2019-05-23T11:25:35.070Z,57.40
2019-05-23T11:30:50.380Z,56.20
2019-05-23T11:35:54.203Z,56.70
2019-05-23T11:40:58.204Z,57.40
2019-05-23T11:46:18.714Z,54.50
2019-05-23T11:51:25.201Z,56.80
2019-05-23T11:56:27.723Z,56.80
2019-05-23T12:01:40.092Z,57.40
2019-05-23T12:06:55.399Z,57.10
2019-05-23T12:11:51.108Z,55.70
2019-05-23T12:16:55.995Z,55.40
2019-05-23T12:21:59.757Z,57.50
2019-05-23T12:27:03.609Z,56.70
2019-05-23T12:32:08.946Z,55.30
2019-05-23T12:37:20.821Z,54.10
2019-05-23T12:42:19.511Z,55.30
2019-05-23T12:47:24.927Z,57.00
2019-05-23T12:52:28.909Z,54.80
2019-05-23T12:57:32.544Z,56.90
2019-05-23T13:02:36.921Z,56.30
2019-05-23T13:07:40.597Z,54.70
2019-05-23T13:12:44.287Z,57.00
2019-05-23T13:17:48.111Z,52.10
2019-05-23T13:22:51.895Z,50.70
2019-05-23T13:27:58.668Z,47.20
2019-05-23T13:33:03.705Z,47.30
2019-05-23T13:38:08.172Z,47.90
2019-05-23T13:43:11.796Z,49.60
2019-05-23T13:48:15.498Z,50.30
2019-05-23T13:53:19.258Z,50.40
2019-05-23T13:58:23.309Z,48.70
2019-05-23T14:03:27.372Z,50.00
2019-05-23T14:08:31.061Z,49.70
2019-05-23T14:13:35.186Z,49.60
2019-05-23T14:18:39.267Z,49.40
2019-05-23T14:23:43.236Z,50.20
2019-05-23T14:28:47.939Z,50.90
2019-05-23T14:33:53.314Z,50.80
2019-05-23T14:38:58.883Z,50.40
2019-05-23T14:44:03.913Z,50.50
2019-05-23T14:49:09.532Z,49.00
2019-05-23T14:54:33.112Z,48.50
2019-05-23T14:59:37.399Z,49.80
2019-05-23T15:04:41.202Z,51.00
2019-05-23T15:09:44.893Z,51.20
2019-05-23T15:14:48.860Z,51.50
2019-05-23T15:19:52.706Z,50.90
2019-05-23T15:24:56.396Z,50.70
2019-05-23T15:30:00.131Z,51.70
2019-05-23T15:35:04.193Z,50.40
2019-05-23T15:40:08.195Z,51.70
2019-05-23T15:45:12.086Z,50.40
2019-05-23T15:50:17.433Z,51.00
2019-05-23T15:55:25.604Z,52.10
2019-05-23T16:00:31.139Z,50.90
2019-05-23T16:05:35.034Z,51.00
2019-05-23T16:10:39.309Z,51.80
2019-05-23T16:15:44.035Z,51.80
2019-05-23T16:20:47.611Z,52.20
2019-05-23T16:25:51.366Z,51.80
2019-05-23T16:30:55.176Z,52.50
2019-05-23T16:35:59.176Z,51.70
2019-05-23T16:41:02.791Z,51.40
2019-05-23T16:46:06.503Z,51.60
2019-05-23T16:51:10.452Z,52.50
2019-05-23T16:56:18.790Z,52.30
2019-05-23T17:01:29.886Z,53.10
2019-05-23T17:06:35.168Z,52.90
2019-05-23T17:11:49.271Z,51.20
2019-05-23T17:16:54.676Z,52.90
2019-05-23T17:22:00.088Z,52.10
2019-05-23T17:27:05.421Z,53.40
2019-05-23T17:32:10.773Z,53.70
2019-05-23T17:37:15.576Z,53.50
2019-05-23T17:42:21.077Z,53.90
2019-05-23T17:47:25.200Z,54.10
2019-05-23T17:52:29.159Z,53.20
2019-05-23T17:57:33.331Z,54.00
2019-05-23T18:02:37.659Z,52.80
2019-05-23T18:07:41.709Z,53.80
2019-05-23T18:12:45.572Z,54.40
2019-05-23T18:17:49.616Z,53.70
2019-05-23T18:22:54.656Z,54.40
2019-05-23T18:27:58.813Z,54.50
2019-05-23T18:33:03.599Z,54.90
2019-05-23T18:38:07.673Z,54.80
2019-05-23T18:43:11.737Z,54.50
2019-05-23T18:48:16.072Z,54.50
2019-05-23T18:53:19.772Z,54.80
2019-05-23T18:58:23.560Z,55.00
2019-05-23T19:03:27.443Z,55.00
2019-05-23T19:08:31.327Z,55.10
2019-05-23T19:13:35.085Z,55.20
2019-05-23T19:18:39.171Z,55.00
2019-05-23T19:23:43.090Z,55.00
2019-05-23T19:28:46.997Z,55.00
2019-05-23T19:33:51.231Z,52.60
2019-05-23T19:38:54.982Z,53.40
2019-05-23T19:43:58.716Z,54.20
2019-05-23T19:49:02.608Z,54.30
2019-05-23T19:54:06.369Z,54.50
2019-05-23T19:59:10.086Z,54.50
2019-05-23T20:04:14.658Z,54.20
2019-05-23T20:09:19.999Z,54.80
2019-05-23T20:14:23.799Z,55.10
2019-05-23T20:19:27.475Z,54.60
2019-05-23T20:24:31.124Z,54.80
2019-05-23T20:29:34.795Z,55.00
2019-05-23T20:34:39.500Z,54.60
2019-05-23T20:39:43.681Z,54.60
2019-05-23T20:44:47.575Z,55.20
2019-05-23T20:49:51.216Z,54.90
2019-05-23T20:54:55.209Z,54.90
2019-05-23T20:59:58.930Z,54.90
2019-05-23T21:05:02.678Z,54.10
2019-05-23T21:10:06.471Z,54.10
2019-05-23T21:15:10.275Z,53.80
2019-05-23T21:20:13.982Z,54.00
2019-05-23T21:25:17.682Z,53.90
2019-05-23T21:30:21.460Z,53.70
2019-05-23T21:35:25.166Z,54.00
2019-05-23T21:40:30.416Z,54.10
2019-05-23T21:45:34.213Z,54.40
2019-05-23T21:50:39.198Z,54.10
2019-05-23T21:55:43.666Z,54.40
2019-05-23T22:01:05.574Z,54.10
2019-05-23T22:06:12.973Z,55.00
2019-05-23T22:11:17.322Z,54.40
2019-05-23T22:16:21.096Z,54.20
2019-05-23T22:21:24.891Z,55.10
2019-05-23T22:26:28.920Z,54.60
2019-05-23T22:31:32.885Z,54.40
2019-05-23T22:36:36.584Z,54.00
2019-05-23T22:41:41.261Z,53.70
2019-05-23T22:46:44.960Z,53.60
2019-05-23T22:51:48.571Z,53.80
2019-05-23T22:56:52.265Z,53.80
2019-05-23T23:01:55.998Z,53.80
2019-05-23T23:06:59.776Z,53.60
2019-05-23T23:12:03.462Z,53.60
2019-05-23T23:17:07.235Z,53.40
2019-05-23T23:22:11.897Z,53.50
2019-05-23T23:27:16.438Z,53.10
2019-05-23T23:32:20.145Z,53.10
2019-05-23T23:37:23.818Z,53.60
2019-05-23T23:42:27.515Z,54.10
2019-05-23T23:47:49.422Z,53.40
2019-05-23T23:53:12.046Z,53.10
2019-05-23T23:58:15.148Z,53.60
